< < Back
Terminal Aerodrome Forecast


Current Version              Previous Versions:   1  2  3  4  5  6  7  8  9  

Terminal Aerodrome Forecast

542
FTUS42 KJAX 280834 AAB
TAFJAX
TAF AMD
KJAX 280834Z 2809/2906 VRB03KT P6SM FEW040 BKN250
     FM281500 10012KT P6SM SCT040 BKN250
     FM290200 VRB03KT P6SM SCT250=

Latest METAR

806
SAUS80 KWBC 281000
MTRJAX
METAR KJAX 280956Z 00000KT 10SM SCT028 BKN250 18/17 A3014 RMK AO2 SLP206
T01780167 $


USA.gov is the U.S. government's official web portal to all federal, state and local government web resources and services.